Time;durP1;ratioP1;P1;durP2;ratioP2;P2;SDS_P1;SDS_P2;PMS_P1;PMS_P2;Temp;Humidity;BMP_temperature;BMP_pressure;BME280_temperature;BME280_humidity;BME280_pressure;Samples;Min_cycle;Max_cycle;Signal;HPM_P1;HPM_P2
2022/02/13 00:01:00;;;;;;;;;20.75;20.50;;;;;7.65;68.41;101737.16;4994158;28;45243;-86
2022/02/13 00:03:27;;;;;;;;;22.75;22.75;;;;;7.71;68.13;101739.28;4976257;28;46766;-87
2022/02/13 00:05:53;;;;;;;;;20.25;18.75;;;;;7.69;67.96;101730.53;5002912;27;46006;-87
2022/02/13 00:08:19;;;;;;;;;20.00;17.50;;;;;7.67;67.58;101714.97;5096153;27;45422;-84
2022/02/13 00:10:44;;;;;;;;;23.00;20.25;;;;;7.72;67.56;101718.75;5085634;27;45563;-86
2022/02/13 00:13:10;;;;;;;;;24.50;20.75;;;;;7.69;67.62;101709.94;4976614;28;46868;-86
2022/02/13 00:15:36;;;;;;;;;22.75;21.50;;;;;7.72;67.49;101718.75;4988287;27;45646;-86
2022/02/13 00:18:02;;;;;;;;;21.75;21.75;;;;;7.70;67.92;101710.06;5096870;27;45370;-86
2022/02/13 00:20:28;;;;;;;;;23.75;23.75;;;;;7.69;67.57;101705.69;5074244;27;45503;-86
2022/02/13 00:22:53;;;;;;;;;21.25;19.50;;;;;7.66;67.48;101704.56;5015555;27;46291;-86
2022/02/13 00:25:19;;;;;;;;;23.50;22.25;;;;;7.64;67.74;101695.84;5062353;27;45426;-86
2022/02/13 00:27:46;;;;;;;;;24.50;20.25;;;;;7.59;67.47;101696.38;4993491;28;45393;-86
2022/02/13 00:30:14;;;;;;;;;22.75;21.50;;;;;7.51;67.91;101687.22;4987855;27;45213;-86
2022/02/13 00:32:41;;;;;;;;;28.25;26.25;;;;;7.52;68.29;101695.84;5095358;27;46103;-84
2022/02/13 00:35:07;;;;;;;;;30.25;24.75;;;;;7.47;68.55;101690.34;5012665;27;45476;-87
2022/02/13 00:37:33;;;;;;;;;27.50;21.50;;;;;7.39;68.69;101674.38;5017253;27;45434;-84
2022/02/13 00:39:59;;;;;;;;;22.25;21.75;;;;;7.36;69.07;101671.56;5095163;27;45482;-84
2022/02/13 00:42:24;;;;;;;;;25.25;24.50;;;;;7.39;68.83;101666.66;5093093;27;46165;-84
2022/02/13 00:44:50;;;;;;;;;23.00;22.50;;;;;7.40;68.67;101662.38;5097754;27;45480;-84
2022/02/13 00:47:15;;;;;;;;;22.75;22.75;;;;;7.36;68.50;101658.69;5101525;27;45497;-84
2022/02/13 00:49:41;;;;;;;;;30.75;24.50;;;;;7.31;68.98;101652.28;5100850;27;45511;-84
2022/02/13 00:52:07;;;;;;;;;24.50;21.25;;;;;7.33;69.11;101649.84;5099712;27;46455;-84
2022/02/13 00:54:33;;;;;;;;;23.50;23.25;;;;;7.35;68.74;101649.16;5031401;27;45330;-83
2022/02/13 00:57:02;;;;;;;;;26.75;23.00;;;;;7.32;69.07;101648.06;4996392;28;45240;-83
2022/02/13 00:59:28;;;;;;;;;21.00;21.00;;;;;7.32;69.11;101648.94;4996700;28;45381;-83
2022/02/13 01:01:54;;;;;;;;;20.00;18.50;;;;;7.31;68.58;101634.28;4997109;28;45439;-83
2022/02/13 01:04:21;;;;;;;;;21.25;21.25;;;;;7.23;68.99;101622.53;4996553;27;45344;-84
2022/02/13 01:06:46;;;;;;;;;20.75;20.25;;;;;7.28;69.10;101637.53;4996083;28;45462;-85
2022/02/13 01:09:12;;;;;;;;;19.50;18.25;;;;;7.24;69.28;101629.47;5053546;27;45313;-85
2022/02/13 01:11:38;;;;;;;;;22.00;20.75;;;;;7.25;69.23;101633.84;5025353;27;46123;-85
2022/02/13 01:14:05;;;;;;;;;20.00;20.00;;;;;7.25;68.96;101632.16;4982970;28;45293;-85
2022/02/13 01:16:31;;;;;;;;;20.50;17.50;;;;;7.20;68.82;101625.78;4979722;28;45363;-86
2022/02/13 01:18:56;;;;;;;;;21.25;18.00;;;;;7.24;68.77;101627.78;4978115;28;45695;-85
2022/02/13 01:21:22;;;;;;;;;26.75;18.75;;;;;7.23;68.61;101626.03;4995477;27;46051;-85
2022/02/13 01:23:48;;;;;;;;;21.00;18.00;;;;;7.21;68.79;101619.84;4995696;27;45405;-85
2022/02/13 01:26:15;;;;;;;;;21.50;19.75;;;;;7.20;68.89;101615.50;4998473;27;45576;-84
2022/02/13 01:28:41;;;;;;;;;22.25;15.50;;;;;7.22;68.46;101615.59;4980323;28;45400;-85
2022/02/13 01:31:08;;;;;;;;;21.00;18.50;;;;;7.19;69.21;101610.22;4995395;27;45340;-85
2022/02/13 01:33:34;;;;;;;;;22.75;17.75;;;;;7.13;68.67;101596.13;4995854;27;45841;-85
2022/02/13 01:36:01;;;;;;;;;21.50;18.50;;;;;7.17;68.98;101611.81;4995650;28;45244;-85
2022/02/13 01:38:28;;;;;;;;;19.50;19.50;;;;;7.13;68.94;101606.44;4998348;27;45466;-85
2022/02/13 01:40:54;;;;;;;;;18.25;15.00;;;;;7.15;69.27;101601.38;5023445;27;46207;-86
2022/02/13 01:43:20;;;;;;;;;26.50;25.50;;;;;7.18;69.52;101611.03;5099320;27;45363;-85
2022/02/13 01:45:46;;;;;;;;;17.75;17.50;;;;;7.19;69.37;101615.34;5097445;27;45492;-85
2022/02/13 01:48:12;;;;;;;;;20.00;19.00;;;;;7.16;69.69;101613.47;5099636;27;45559;-85
2022/02/13 01:50:40;;;;;;;;;25.25;22.25;;;;;7.21;69.36;101621.53;5081103;27;47500;-85
2022/02/13 01:53:07;;;;;;;;;19.25;19.25;;;;;7.24;69.88;101611.44;5093578;27;45808;-85
2022/02/13 01:55:33;;;;;;;;;23.50;19.75;;;;;7.27;69.71;101609.97;5099535;27;45370;-85
2022/02/13 01:57:59;;;;;;;;;18.00;16.00;;;;;7.31;69.76;101611.09;5098918;27;45531;-85
2022/02/13 02:00:25;;;;;;;;;29.75;23.75;;;;;7.32;69.42;101610.31;5039467;27;45414;-86
2022/02/13 02:02:51;;;;;;;;;28.25;20.75;;;;;7.35;69.33;101597.66;4995366;28;45918;-86
2022/02/13 02:05:17;;;;;;;;;24.25;19.75;;;;;7.36;69.09;101604.59;4996467;28;45362;-85
2022/02/13 02:07:43;;;;;;;;;19.25;16.50;;;;;7.36;68.89;101596.88;4998577;28;45389;-86
2022/02/13 02:10:09;;;;;;;;;22.25;20.00;;;;;7.34;68.74;101584.66;4994903;28;45874;-85
2022/02/13 02:12:36;;;;;;;;;22.50;16.25;;;;;7.31;68.42;101595.63;4995498;28;45309;-86
2022/02/13 02:15:03;;;;;;;;;20.50;19.00;;;;;7.22;68.59;101572.72;4995449;28;45281;-85
2022/02/13 02:17:29;;;;;;;;;25.50;21.00;;;;;7.18;68.12;101567.25;4997406;28;45455;-85
2022/02/13 02:19:54;;;;;;;;;21.00;19.00;;;;;7.14;68.79;101576.41;5004600;28;46184;-86
2022/02/13 02:22:20;;;;;;;;;20.25;18.00;;;;;7.08;68.95;101575.97;5004232;28;45253;-85
2022/02/13 02:24:46;;;;;;;;;21.00;19.25;;;;;7.02;69.44;101567.84;5007135;28;45397;-85
2022/02/13 02:27:12;;;;;;;;;19.25;16.50;;;;;7.00;69.69;101565.13;4985576;28;45597;-85
2022/02/13 02:29:38;;;;;;;;;20.00;18.00;;;;;7.00;69.37;101559.97;5005113;28;45468;-85
2022/02/13 02:32:05;;;;;;;;;20.25;19.25;;;;;6.93;69.83;101558.63;5002741;28;45221;-85
2022/02/13 02:34:31;;;;;;;;;19.00;18.50;;;;;6.89;70.21;101537.72;4997131;28;45303;-85
2022/02/13 02:36:57;;;;;;;;;20.25;18.75;;;;;6.75;70.24;101536.75;4995832;28;45374;-84
2022/02/13 02:39:23;;;;;;;;;23.75;21.75;;;;;6.69;70.92;101539.75;4994857;28;47191;-84
2022/02/13 02:41:49;;;;;;;;;14.25;12.25;;;;;6.63;70.93;101532.50;4994932;28;45410;-86
2022/02/13 02:44:14;;;;;;;;;24.25;22.50;;;;;6.58;71.57;101532.94;4995523;27;45340;-84
2022/02/13 02:46:40;;;;;;;;;21.75;19.00;;;;;6.50;70.96;101523.00;4995835;28;45426;-84
2022/02/13 02:49:05;;;;;;;;;27.00;22.25;;;;;6.42;71.55;101523.22;5000737;27;46520;-84
2022/02/13 02:51:31;;;;;;;;;20.50;18.75;;;;;6.40;72.14;101527.34;5091749;27;45390;-86
2022/02/13 02:53:57;;;;;;;;;26.25;22.75;;;;;6.39;71.99;101520.41;5058986;27;45470;-85
2022/02/13 02:56:22;;;;;;;;;23.25;19.50;;;;;6.31;72.56;101518.19;5062242;27;45244;-85
2022/02/13 02:58:48;;;;;;;;;23.25;20.50;;;;;6.26;72.59;101510.91;5011203;27;45995;-85
2022/02/13 03:01:14;;;;;;;;;27.75;24.00;;;;;6.26;73.35;101523.78;5074206;27;45714;-85
2022/02/13 03:03:39;;;;;;;;;32.00;23.75;;;;;6.26;73.01;101521.19;5100584;27;45387;-85
2022/02/13 03:06:05;;;;;;;;;20.50;18.00;;;;;6.25;73.13;101516.84;5040195;27;45323;-85
2022/02/13 03:08:31;;;;;;;;;20.75;18.25;;;;;6.23;73.97;101513.25;4993281;28;46022;-86
2022/02/13 03:10:56;;;;;;;;;17.50;14.00;;;;;6.22;73.88;101501.16;5031608;27;45366;-85
2022/02/13 03:13:22;;;;;;;;;18.00;17.00;;;;;6.23;73.63;101508.09;5039500;28;45422;-85
2022/02/13 03:15:51;;;;;;;;;25.25;24.25;;;;;6.19;74.46;101504.41;4994950;28;45323;-85
2022/02/13 03:18:18;;;;;;;;;23.00;21.50;;;;;6.15;74.57;101490.44;4976623;28;45428;-85
2022/02/13 03:20:47;;;;;;;;;24.00;22.25;;;;;6.15;75.07;101492.16;4994448;27;45240;-85
2022/02/13 03:23:13;;;;;;;;;26.25;22.25;;;;;6.16;74.76;101489.66;4985107;27;45876;-85
2022/02/13 03:25:40;;;;;;;;;24.75;20.25;;;;;6.15;74.45;101485.31;5001818;27;45511;-85
2022/02/13 03:28:06;;;;;;;;;22.50;22.00;;;;;6.10;74.71;101476.34;4998214;28;45483;-85
2022/02/13 03:30:32;;;;;;;;;22.00;21.50;;;;;6.11;75.06;101477.25;4976606;28;45970;-85
2022/02/13 03:32:58;;;;;;;;;19.75;13.25;;;;;6.10;74.97;101470.31;4995273;27;45400;-85
2022/02/13 03:35:24;;;;;;;;;22.75;21.25;;;;;6.08;74.79;101469.31;4977136;28;45323;-84
2022/02/13 03:37:50;;;;;;;;;25.75;24.75;;;;;6.08;75.33;101474.44;5027468;27;45440;-84
2022/02/13 03:40:16;;;;;;;;;23.75;21.00;;;;;6.05;74.94;101475.13;5088865;27;45354;-85
2022/02/13 03:42:42;;;;;;;;;20.75;20.75;;;;;6.05;76.09;101475.13;5079226;27;45471;-85
2022/02/13 03:45:09;;;;;;;;;19.25;17.50;;;;;6.03;76.32;101475.03;5096761;27;45433;-85
2022/02/13 03:47:35;;;;;;;;;19.00;19.00;;;;;6.06;75.87;101461.50;5091879;27;46881;-85
2022/02/13 03:50:01;;;;;;;;;19.00;17.50;;;;;6.07;76.57;101458.16;5094752;27;45552;-85
2022/02/13 03:52:27;;;;;;;;;20.50;17.25;;;;;6.09;76.24;101453.13;5075898;27;45319;-84
2022/02/13 03:54:53;;;;;;;;;22.75;20.25;;;;;6.09;76.03;101456.59;5005330;27;45539;-85
2022/02/13 03:57:19;;;;;;;;;18.25;15.00;;;;;6.11;76.11;101452.44;4994819;28;45661;-85
2022/02/13 03:59:44;;;;;;;;;20.75;20.25;;;;;6.12;75.98;101454.22;4976670;28;45422;-84
2022/02/13 04:02:10;;;;;;;;;24.25;20.25;;;;;6.11;75.92;101448.97;5074995;27;45399;-84
2022/02/13 04:04:35;;;;;;;;;27.00;20.50;;;;;6.10;76.30;101445.50;5096621;27;45398;-84
2022/02/13 04:07:01;;;;;;;;;19.00;19.00;;;;;6.13;75.80;101458.59;5041707;27;46216;-84
2022/02/13 04:09:27;;;;;;;;;23.75;18.50;;;;;6.09;76.26;101438.59;5069692;27;45255;-86
2022/02/13 04:11:52;;;;;;;;;22.00;18.75;;;;;6.18;76.14;101446.97;4994212;28;45687;-86
2022/02/13 04:14:18;;;;;;;;;27.00;19.50;;;;;6.21;76.05;101437.69;4994052;28;45626;-85
2022/02/13 04:16:44;;;;;;;;;24.00;22.00;;;;;6.26;75.39;101437.25;5093629;27;45784;-86
2022/02/13 04:19:09;;;;;;;;;18.25;18.25;;;;;6.26;75.43;101433.78;5097095;27;45461;-86
2022/02/13 04:21:35;;;;;;;;;23.50;20.75;;;;;6.28;75.48;101434.78;5084592;27;45543;-84
2022/02/13 04:24:00;;;;;;;;;18.25;16.50;;;;;6.21;75.50;101424.84;4994515;27;45537;-85
2022/02/13 04:26:26;;;;;;;;;23.25;18.50;;;;;6.20;75.63;101436.78;5002129;27;45275;-84
2022/02/13 04:28:51;;;;;;;;;18.75;16.50;;;;;6.12;75.53;101425.06;4995578;27;45425;-84
2022/02/13 04:31:17;;;;;;;;;23.50;19.00;;;;;6.11;75.83;101423.28;4974027;28;45347;-85
2022/02/13 04:33:43;;;;;;;;;22.75;19.00;;;;;6.12;76.06;101428.50;5020656;27;45440;-84
2022/02/13 04:36:08;;;;;;;;;23.25;19.25;;;;;6.09;76.35;101423.19;5082426;27;46225;-84
2022/02/13 04:38:34;;;;;;;;;24.50;20.00;;;;;6.09;76.29;101422.25;4975911;28;45328;-85
2022/02/13 04:41:00;;;;;;;;;23.75;19.25;;;;;6.09;76.79;101414.56;4993793;27;45461;-84
2022/02/13 04:43:27;;;;;;;;;25.75;19.75;;;;;6.08;76.74;101407.63;4994246;27;45524;-85
2022/02/13 04:45:53;;;;;;;;;24.75;21.75;;;;;6.12;76.99;101405.38;4993299;28;46808;-85
2022/02/13 04:48:18;;;;;;;;;21.75;21.25;;;;;6.11;77.04;101403.59;4977681;28;45444;-85
2022/02/13 04:50:44;;;;;;;;;22.75;18.50;;;;;6.11;77.21;101401.00;4995218;27;45310;-85
2022/02/13 04:53:10;;;;;;;;;24.25;20.25;;;;;6.10;77.20;101408.63;4993441;28;45325;-85
2022/02/13 04:55:35;;;;;;;;;22.75;18.00;;;;;6.13;77.30;101396.88;4992986;28;45902;-85
2022/02/13 04:58:04;;;;;;;;;22.75;20.00;;;;;6.10;77.20;101386.38;4992973;27;45357;-85
2022/02/13 05:00:30;;;;;;;;;22.25;17.50;;;;;6.13;77.36;101381.47;5015950;27;45305;-84
2022/02/13 05:02:56;;;;;;;;;19.75;18.75;;;;;6.09;76.87;101379.47;5095517;27;45690;-85
2022/02/13 05:05:23;;;;;;;;;23.25;19.00;;;;;6.08;77.10;101372.53;5096467;27;45627;-84
2022/02/13 05:07:48;;;;;;;;;23.75;19.25;;;;;6.06;77.55;101368.03;5096275;27;45413;-85
2022/02/13 05:10:14;;;;;;;;;21.00;19.00;;;;;6.01;77.29;101354.88;5009213;27;45478;-84
2022/02/13 05:12:40;;;;;;;;;20.25;19.50;;;;;6.05;78.04;101367.16;4993203;27;45628;-85
2022/02/13 05:15:07;;;;;;;;;22.00;17.25;;;;;6.03;77.01;101376.44;5046422;27;45345;-84
2022/02/13 05:17:35;;;;;;;;;22.25;17.00;;;;;5.99;78.02;101357.34;5078871;27;45864;-85
2022/02/13 05:20:01;;;;;;;;;25.00;22.25;;;;;5.97;78.35;101351.16;5030123;28;45289;-85
2022/02/13 05:22:27;;;;;;;;;20.25;17.50;;;;;5.97;78.39;101355.41;4993682;28;45545;-84
2022/02/13 05:24:53;;;;;;;;;19.25;19.00;;;;;5.89;78.75;101337.75;5000043;27;45619;-84
2022/02/13 05:27:18;;;;;;;;;23.25;22.25;;;;;5.93;79.03;101328.59;4992785;27;45336;-85
2022/02/13 05:29:44;;;;;;;;;22.00;20.50;;;;;5.93;78.64;101336.31;4975035;28;45327;-84
2022/02/13 05:32:10;;;;;;;;;23.00;23.00;;;;;5.89;79.14;101334.28;4993118;28;45232;-84
2022/02/13 05:34:35;;;;;;;;;18.75;17.50;;;;;5.86;79.48;101329.84;4995140;28;45627;-85
2022/02/13 05:37:02;;;;;;;;;24.50;19.50;;;;;5.83;79.57;101315.88;4995483;28;45379;-85
2022/02/13 05:39:27;;;;;;;;;25.25;23.00;;;;;5.85;79.98;101327.13;5020322;27;45442;-83
2022/02/13 05:41:53;;;;;;;;;26.25;22.25;;;;;5.78;79.92;101322.34;5100786;27;45648;-82
2022/02/13 05:44:19;;;;;;;;;22.00;18.25;;;;;5.79;80.76;101322.44;5099680;27;45334;-83
2022/02/13 05:46:44;;;;;;;;;23.25;21.50;;;;;5.79;80.62;101331.84;5099158;27;45200;-82
2022/02/13 05:49:10;;;;;;;;;20.50;16.00;;;;;5.80;80.49;101324.25;5099102;27;45278;-82
2022/02/13 05:51:36;;;;;;;;;26.50;18.75;;;;;5.80;80.43;101325.94;5099475;27;45208;-82
2022/02/13 05:54:02;;;;;;;;;21.25;17.75;;;;;5.81;81.17;101325.16;5098653;27;46064;-82
2022/02/13 05:56:28;;;;;;;;;21.25;20.25;;;;;5.83;81.22;101305.59;5099017;27;45354;-81
2022/02/13 05:58:54;;;;;;;;;23.00;19.00;;;;;5.90;81.39;101312.97;5099465;27;45417;-82
2022/02/13 06:01:20;;;;;;;;;19.50;16.50;;;;;5.94;79.94;101311.50;5099013;27;45567;-82
2022/02/13 06:03:46;;;;;;;;;14.50;13.25;;;;;5.92;79.96;101318.19;5099011;27;45486;-82
2022/02/13 06:06:12;;;;;;;;;17.50;16.25;;;;;5.91;79.35;101312.19;5099815;27;45954;-83
2022/02/13 06:08:39;;;;;;;;;19.25;16.50;;;;;5.85;78.91;101314.28;5099958;27;45353;-82
2022/02/13 06:11:05;;;;;;;;;19.50;18.75;;;;;5.72;78.67;101300.56;5091758;27;45669;-82
2022/02/13 06:13:31;;;;;;;;;16.25;16.25;;;;;5.65;79.54;101310.31;5098569;27;45395;-82
2022/02/13 06:15:57;;;;;;;;;23.25;16.50;;;;;5.61;79.96;101316.91;5098850;27;45234;-82
2022/02/13 06:18:23;;;;;;;;;28.00;19.25;;;;;5.56;80.38;101313.09;5099308;27;45523;-82
2022/02/13 06:20:48;;;;;;;;;17.75;15.50;;;;;5.48;80.65;101303.94;5101589;27;45512;-82
2022/02/13 06:23:15;;;;;;;;;19.00;18.00;;;;;5.54;80.27;101312.06;5089596;27;45571;-82
2022/02/13 06:25:40;;;;;;;;;18.50;15.75;;;;;5.52;80.52;101309.41;4994870;27;45940;-82
2022/02/13 06:28:06;;;;;;;;;22.75;18.00;;;;;5.50;80.69;101317.78;4994829;28;45402;-82
2022/02/13 06:30:33;;;;;;;;;20.75;20.25;;;;;5.51;80.06;101319.53;4977693;28;45339;-81
2022/02/13 06:33:03;;;;;;;;;20.50;17.75;;;;;5.48;80.07;101312.50;4977002;28;46487;-81
2022/02/13 06:35:30;;;;;;;;;19.00;19.00;;;;;5.54;80.48;101312.06;4994350;28;45395;-81
2022/02/13 06:37:56;;;;;;;;;25.25;23.50;;;;;5.58;80.11;101312.41;5008289;27;45367;-82
2022/02/13 06:40:21;;;;;;;;;22.75;17.25;;;;;5.58;79.65;101311.53;4977361;28;45417;-82
2022/02/13 06:42:47;;;;;;;;;17.25;12.50;;;;;5.58;78.57;101307.25;4994946;27;46191;-82
2022/02/13 06:45:14;;;;;;;;;22.50;19.00;;;;;5.56;78.96;101298.53;4994469;28;45328;-82
2022/02/13 06:47:40;;;;;;;;;18.25;14.50;;;;;5.50;78.52;101287.84;4994728;28;45297;-82
2022/02/13 06:50:07;;;;;;;;;21.00;17.75;;;;;5.51;78.49;101284.50;4995568;28;45402;-84
2022/02/13 06:52:33;;;;;;;;;24.25;22.00;;;;;5.51;78.84;101278.44;5072802;27;46579;-84
2022/02/13 06:54:58;;;;;;;;;19.00;16.50;;;;;5.48;78.50;101274.00;5007606;27;45455;-84
2022/02/13 06:57:27;;;;;;;;;23.75;19.50;;;;;5.49;78.57;101270.63;5053092;27;45354;-87
2022/02/13 06:59:53;;;;;;;;;21.50;21.50;;;;;5.51;79.21;101257.91;5028907;27;45239;-85
2022/02/13 07:02:19;;;;;;;;;18.75;16.50;;;;;5.54;78.43;101264.19;5098348;27;46222;-86
2022/02/13 07:04:45;;;;;;;;;20.50;17.75;;;;;5.50;78.23;101257.03;5099035;27;45176;-85
2022/02/13 07:07:10;;;;;;;;;20.25;17.50;;;;;5.46;78.34;101249.00;5043036;28;45434;-85
2022/02/13 07:09:37;;;;;;;;;20.50;17.00;;;;;5.48;77.46;101247.44;5058118;27;45473;-85
2022/02/13 07:12:09;;;;;;;;;20.25;18.50;;;;;5.48;78.43;101255.13;4994093;27;46025;-85
2022/02/13 07:14:39;;;;;;;;;20.25;17.75;;;;;5.45;78.47;101242.97;4994472;28;45830;-86
2022/02/13 07:17:05;;;;;;;;;23.75;18.25;;;;;5.47;77.42;101249.09;4992827;28;45343;-86
2022/02/13 07:19:31;;;;;;;;;20.75;19.75;;;;;5.48;78.66;101244.88;5004662;27;45579;-83
2022/02/13 07:21:57;;;;;;;;;23.75;21.50;;;;;5.50;78.45;101248.44;4993015;28;45926;-85
2022/02/13 07:24:23;;;;;;;;;19.75;16.00;;;;;5.51;77.76;101242.50;5089235;27;45485;-85
2022/02/13 07:26:48;;;;;;;;;16.25;14.50;;;;;5.48;77.21;101248.31;5084191;27;45394;-85
2022/02/13 07:29:14;;;;;;;;;17.50;17.50;;;;;5.45;77.09;101250.69;5000371;27;45521;-84
2022/02/13 07:31:40;;;;;;;;;21.00;19.75;;;;;5.37;77.18;101249.19;4998066;28;46074;-84
2022/02/13 07:34:06;;;;;;;;;18.75;17.25;;;;;5.27;77.46;101247.66;4993475;28;45468;-85
2022/02/13 07:36:33;;;;;;;;;17.00;17.00;;;;;5.24;77.83;101245.72;4993992;27;45470;-84
2022/02/13 07:38:59;;;;;;;;;21.00;17.25;;;;;5.30;78.02;101246.97;4993770;27;45549;-84
2022/02/13 07:41:26;;;;;;;;;21.50;20.75;;;;;5.29;77.56;101250.31;4994826;27;45366;-84
2022/02/13 07:43:53;;;;;;;;;22.00;19.00;;;;;5.25;77.73;101241.50;5005039;27;45798;-81
2022/02/13 07:46:19;;;;;;;;;21.50;17.00;;;;;5.27;77.54;101245.09;5016339;27;45436;-80
2022/02/13 07:48:45;;;;;;;;;19.75;13.25;;;;;5.28;77.50;101226.34;5022925;27;45724;-85
2022/02/13 07:51:12;;;;;;;;;22.50;20.25;;;;;5.31;76.90;101225.66;5097457;27;45346;-78
2022/02/13 07:53:39;;;;;;;;;16.75;15.00;;;;;5.32;77.39;101230.91;5049615;27;45958;-81
2022/02/13 07:56:06;;;;;;;;;18.25;15.75;;;;;5.30;76.89;101218.75;5042293;27;45497;-89
2022/02/13 07:58:32;;;;;;;;;19.50;17.50;;;;;5.29;77.15;101220.44;5040300;27;45519;-83
2022/02/13 08:01:01;;;;;;;;;20.00;19.00;;;;;5.33;77.08;101214.72;5042556;27;46869;-84
2022/02/13 08:03:27;;;;;;;;;16.25;15.75;;;;;5.32;77.12;101207.78;5052176;27;45337;-84
2022/02/13 08:05:53;;;;;;;;;23.00;20.75;;;;;5.35;77.25;101207.13;5034574;27;45849;-81
2022/02/13 08:08:19;;;;;;;;;20.50;16.25;;;;;5.29;76.90;101194.75;4998600;27;45488;-78
2022/02/13 08:10:45;;;;;;;;;21.25;16.25;;;;;5.33;76.86;101190.72;5096980;27;45784;-81
2022/02/13 08:13:10;;;;;;;;;17.50;14.75;;;;;5.31;77.53;101192.28;5025919;27;45530;-82
2022/02/13 08:15:36;;;;;;;;;19.00;14.00;;;;;5.28;77.79;101192.97;4993807;28;45397;-79
2022/02/13 08:18:09;;;;;;;;;17.75;15.25;;;;;5.29;78.21;101187.06;4991972;28;45364;-82
2022/02/13 08:20:35;;;;;;;;;23.50;18.75;;;;;5.32;80.86;101183.81;4993836;28;47758;-79
2022/02/13 08:23:00;;;;;;;;;20.25;15.75;;;;;5.37;79.12;101182.44;5075112;27;45389;-80
2022/02/13 08:25:26;;;;;;;;;18.75;18.50;;;;;5.38;79.55;101182.56;5100913;27;45339;-82
2022/02/13 08:27:52;;;;;;;;;17.75;15.00;;;;;5.41;80.70;101176.75;5098178;27;45579;-81
2022/02/13 08:30:18;;;;;;;;;16.75;15.50;;;;;5.44;81.18;101182.13;5079310;27;45735;-81
2022/02/13 08:32:44;;;;;;;;;20.50;20.50;;;;;5.49;81.58;101180.75;5098241;27;45253;-82
2022/02/13 08:35:10;;;;;;;;;22.75;17.75;;;;;5.53;81.92;101176.72;5082746;27;45338;-86
2022/02/13 08:37:35;;;;;;;;;25.50;19.00;;;;;5.58;83.22;101167.69;5040843;27;45592;-82
2022/02/13 08:40:01;;;;;;;;;24.00;15.75;;;;;5.62;83.62;101163.66;5002813;27;46011;-82
2022/02/13 08:42:26;;;;;;;;;21.50;18.00;;;;;5.65;84.17;101159.63;4994039;27;45325;-82
2022/02/13 08:44:52;;;;;;;;;18.50;18.50;;;;;5.69;84.05;101160.72;4974984;28;45359;-83
2022/02/13 08:47:18;;;;;;;;;17.50;15.75;;;;;5.74;84.55;101155.13;4991660;28;45602;-82
2022/02/13 08:49:47;;;;;;;;;21.75;20.00;;;;;5.77;85.34;101143.28;4992510;27;45381;-83
2022/02/13 08:52:13;;;;;;;;;18.75;17.00;;;;;5.81;86.22;101145.28;5007803;28;45865;-83
2022/02/13 08:54:39;;;;;;;;;23.00;18.50;;;;;5.84;86.33;101145.47;4995488;28;45220;-83
2022/02/13 08:57:04;;;;;;;;;20.75;20.75;;;;;5.88;86.19;101130.38;4995579;28;45456;-82
2022/02/13 08:59:30;;;;;;;;;25.00;17.50;;;;;5.95;86.46;101146.22;4998411;27;47555;-83
2022/02/13 09:01:56;;;;;;;;;27.75;25.25;;;;;6.00;86.63;101135.50;4987157;28;45315;-83
2022/02/13 09:04:21;;;;;;;;;30.00;22.00;;;;;6.07;86.62;101129.13;4988739;28;45492;-83
2022/02/13 09:06:47;;;;;;;;;26.25;23.00;;;;;6.15;87.08;101133.09;4999948;27;45445;-83
2022/02/13 09:09:13;;;;;;;;;22.50;21.75;;;;;6.19;87.54;101121.34;4997913;27;45505;-83
2022/02/13 09:11:39;;;;;;;;;19.25;18.00;;;;;6.27;87.92;101127.00;5026683;27;45368;-83
2022/02/13 09:14:05;;;;;;;;;22.50;19.25;;;;;6.28;87.93;101119.38;4995456;27;45650;-81
2022/02/13 09:16:31;;;;;;;;;22.75;20.50;;;;;6.31;87.85;101122.16;5000491;27;45585;-80
2022/02/13 09:18:58;;;;;;;;;20.50;16.75;;;;;6.36;92.70;101117.31;5001444;27;46389;-87
2022/02/13 09:21:23;;;;;;;;;24.50;20.50;;;;;6.44;89.28;101111.00;4999146;28;45867;-85
2022/02/13 09:23:49;;;;;;;;;25.25;20.00;;;;;6.47;88.99;101098.34;4998334;27;45182;-87
2022/02/13 09:26:16;;;;;;;;;25.00;23.00;;;;;6.53;89.68;101090.16;4996129;28;45473;-83
2022/02/13 09:28:42;;;;;;;;;13.00;9.00;;;;;6.57;90.84;101076.72;5021078;27;46303;-83
2022/02/13 09:31:08;;;;;;;;;22.50;20.75;;;;;6.64;90.51;101066.00;5007963;27;46194;-81
2022/02/13 09:33:34;;;;;;;;;24.25;21.00;;;;;6.75;90.43;101060.66;4978163;28;45413;-82
2022/02/13 09:35:59;;;;;;;;;17.25;17.25;;;;;6.82;90.61;101053.44;4995372;28;45471;-82
2022/02/13 09:38:25;;;;;;;;;18.00;17.00;;;;;6.90;91.05;101032.44;4995345;28;45569;-82
2022/02/13 09:40:51;;;;;;;;;24.25;21.25;;;;;6.99;90.49;101021.84;4993894;28;45848;-79
2022/02/13 09:43:20;;;;;;;;;18.25;17.00;;;;;7.05;91.05;101025.69;5062684;27;45572;-84
2022/02/13 09:45:50;;;;;;;;;26.50;22.50;;;;;7.16;91.52;101010.03;5087466;27;45664;-84
2022/02/13 09:48:18;;;;;;;;;23.75;19.75;;;;;7.24;91.49;101006.22;4997102;27;45641;-83
2022/02/13 09:50:44;;;;;;;;;22.75;19.50;;;;;7.31;91.33;100998.06;5068580;27;45241;-81
2022/02/13 09:53:10;;;;;;;;;21.75;20.75;;;;;7.39;91.63;100990.81;5023033;27;45441;-81
2022/02/13 09:55:36;;;;;;;;;28.00;21.00;;;;;7.48;91.77;100980.19;4995765;28;45375;-81
2022/02/13 09:58:05;;;;;;;;;24.25;19.50;;;;;7.53;91.45;100976.19;4994478;28;46387;-80
2022/02/13 10:00:49;;;;;;;;;22.25;19.50;;;;;7.63;92.90;100965.63;4978901;28;45488;-83
2022/02/13 10:03:25;;;;;;;;;24.50;21.25;;;;;7.68;94.17;100958.16;4996260;28;45309;-87
2022/02/13 10:06:19;;;;;;;;;18.75;18.50;;;;;7.72;93.17;100953.28;4974896;28;45631;-81
2022/02/13 10:08:46;;;;;;;;;24.75;21.50;;;;;7.80;93.27;100947.69;4992795;28;45467;-80
2022/02/13 10:11:34;;;;;;;;;23.75;22.50;;;;;7.87;92.85;100957.56;5002009;27;45474;-84
2022/02/13 10:14:12;;;;;;;;;26.25;24.50;;;;;7.92;93.19;100951.00;5025648;27;45353;-76
2022/02/13 10:16:40;;;;;;;;;24.00;22.00;;;;;8.02;92.85;100945.56;5069547;27;45492;-86
2022/02/13 10:19:19;;;;;;;;;27.00;24.50;;;;;8.11;93.14;100940.00;5016204;27;47093;-81
2022/02/13 10:21:58;;;;;;;;;21.75;21.75;;;;;8.18;93.09;100930.94;5096887;27;45945;-80
2022/02/13 10:24:27;;;;;;;;;27.00;21.50;;;;;8.27;93.36;100917.69;5079134;27;45813;-81
2022/02/13 10:27:04;;;;;;;;;15.00;15.00;;;;;8.29;93.27;100924.69;5099076;27;45535;-78
2022/02/13 10:29:32;;;;;;;;;25.50;21.00;;;;;8.35;93.47;100945.69;5098177;27;45325;-80
2022/02/13 10:32:13;;;;;;;;;24.25;19.50;;;;;8.37;94.53;100936.31;5098659;27;45452;-78
2022/02/13 10:34:40;;;;;;;;;23.75;23.75;;;;;8.40;95.37;100932.13;5097305;27;45386;-82
2022/02/13 10:37:06;;;;;;;;;22.75;21.25;;;;;8.42;95.10;100926.28;5099091;27;45610;-82
2022/02/13 10:39:43;;;;;;;;;22.00;19.00;;;;;8.49;96.03;100932.69;5101028;27;45241;-80
2022/02/13 10:42:11;;;;;;;;;20.75;20.75;;;;;8.48;97.09;100918.91;5100619;27;45513;-82
2022/02/13 10:44:36;;;;;;;;;18.75;18.75;;;;;8.48;97.63;100907.66;5099266;27;45463;-83
2022/02/13 10:47:02;;;;;;;;;24.25;18.75;;;;;8.47;98.48;100903.31;5072857;27;45571;-83
2022/02/13 10:49:32;;;;;;;;;20.75;18.25;;;;;8.48;98.69;100894.78;5102399;27;46552;-79
2022/02/13 10:52:00;;;;;;;;;23.50;21.75;;;;;8.49;99.12;100910.34;5114386;27;45621;-80
2022/02/13 10:54:26;;;;;;;;;21.00;20.50;;;;;8.52;100.00;100901.88;5106454;27;45430;-82
2022/02/13 10:56:52;;;;;;;;;23.50;22.25;;;;;8.56;100.00;100884.88;5098291;27;45471;-81
2022/02/13 10:59:17;;;;;;;;;23.50;21.75;;;;;8.60;100.00;100872.22;5079764;27;45292;-83
2022/02/13 11:01:48;;;;;;;;;24.75;22.00;;;;;8.65;100.00;100867.28;5097940;27;45358;-81
2022/02/13 11:04:16;;;;;;;;;21.25;19.00;;;;;8.71;100.00;100871.91;5080579;27;45438;-83
2022/02/13 11:06:42;;;;;;;;;20.50;19.75;;;;;8.81;100.00;100858.66;5100059;27;45461;-81
2022/02/13 11:09:23;;;;;;;;;23.75;18.75;;;;;8.88;100.00;100860.78;5065807;27;45631;-79
2022/02/13 11:11:52;;;;;;;;;22.50;21.25;;;;;8.96;100.00;100856.03;4981780;27;45540;-80
2022/02/13 11:14:36;;;;;;;;;24.25;21.50;;;;;9.08;100.00;100861.81;4983001;27;45453;-82